Time,TemperatureF,DewpointF,PressureIn,WindDirection,WindDirectionDegrees,WindSpeedMPH,WindSpeedGustMPH,Humidity,HourlyPrecipIn,Conditions,Clouds,dailyrainin,SoftwareType,DateUTC
2013-01-12 00:03:00,37.8,35.4,29.48,NW,307,7.0,17.0,91,0.00,,,0.01,meteohub,2013-01-12 06:03:00,
2013-01-12 00:08:00,37.4,35.1,29.48,NW,315,10.0,17.0,91,0.00,,,0.00,meteohub,2013-01-12 06:08:00,
2013-01-12 00:13:00,37.0,34.7,29.48,NW,319,3.0,16.0,91,0.00,,,0.00,meteohub,2013-01-12 06:13:00,
2013-01-12 00:18:00,36.9,34.5,29.48,NW,306,3.0,16.0,91,0.00,,,0.00,meteohub,2013-01-12 06:18:00,
2013-01-12 00:23:00,36.7,34.3,29.49,NW,324,6.0,14.0,91,0.00,,,0.00,meteohub,2013-01-12 06:23:00,
2013-01-12 00:28:00,36.5,34.2,29.48,NW,317,5.0,14.0,91,0.00,,,0.00,meteohub,2013-01-12 06:28:00,
2013-01-12 00:33:00,36.3,34.0,29.49,NW,314,7.0,19.0,91,0.00,,,0.00,meteohub,2013-01-12 06:33:00,
2013-01-12 00:38:00,36.1,33.8,29.49,NW,311,5.0,19.0,91,0.00,,,0.00,meteohub,2013-01-12 06:38:00,
2013-01-12 00:43:00,36.1,33.8,29.50,NW,309,5.0,19.0,91,0.00,,,0.00,meteohub,2013-01-12 06:43:00,
2013-01-12 00:48:00,36.0,33.6,29.51,WNW,301,13.0,17.0,91,0.00,,,0.00,meteohub,2013-01-12 06:48:00,
2013-01-12 00:53:00,35.8,33.4,29.52,WNW,286,11.0,17.0,91,0.00,,,0.00,meteohub,2013-01-12 06:53:00,
2013-01-12 00:58:00,35.6,33.3,29.53,WNW,300,12.0,16.0,91,0.00,,,0.00,meteohub,2013-01-12 06:58:00,
2013-01-12 01:03:00,35.4,32.7,29.53,West,263,10.0,17.0,90,0.00,,,0.00,meteohub,2013-01-12 07:03:00,
2013-01-12 01:08:00,35.2,32.5,29.54,NW,316,9.0,17.0,90,0.00,,,0.00,meteohub,2013-01-12 07:08:00,
2013-01-12 01:13:00,34.3,31.6,29.55,NW,318,10.0,22.0,90,0.00,,,0.00,meteohub,2013-01-12 07:13:00,
2013-01-12 01:18:00,33.8,31.1,29.55,NNW,328,15.0,22.0,90,0.00,,,0.00,meteohub,2013-01-12 07:18:00,
2013-01-12 01:23:00,32.5,30.0,29.56,NW,326,12.0,22.0,90,0.00,,,0.00,meteohub,2013-01-12 07:23:00,
2013-01-12 01:28:00,32.0,29.5,29.56,NW,313,5.0,22.0,90,0.00,,,0.00,meteohub,2013-01-12 07:28:00,
2013-01-12 01:33:00,31.5,28.9,29.56,NW,308,15.0,22.0,90,0.00,,,0.00,meteohub,2013-01-12 07:33:00,
2013-01-12 01:38:00,30.9,28.4,29.57,NW,308,9.0,22.0,90,0.00,,,0.00,meteohub,2013-01-12 07:38:00,
2013-01-12 01:43:00,30.0,27.5,29.57,NW,308,7.0,19.0,90,0.00,,,0.00,meteohub,2013-01-12 07:43:00,
2013-01-12 01:48:00,29.3,26.4,29.58,NW,307,9.0,23.0,89,0.00,,,0.00,meteohub,2013-01-12 07:48:00,
2013-01-12 01:53:00,28.6,25.7,29.59,NW,307,11.0,23.0,89,0.00,,,0.00,meteohub,2013-01-12 07:53:00,
2013-01-12 01:58:00,27.9,24.8,29.59,NW,307,17.0,22.0,88,0.00,,,0.00,meteohub,2013-01-12 07:58:00,
2013-01-12 02:03:00,27.1,24.1,29.60,NW,307,10.0,24.0,88,0.00,,,0.00,meteohub,2013-01-12 08:03:00,
2013-01-12 02:08:00,26.8,23.7,29.60,NW,308,11.0,24.0,88,0.00,,,0.00,meteohub,2013-01-12 08:08:00,
2013-01-12 02:13:00,26.4,23.4,29.61,NW,308,21.0,26.0,88,0.00,,,0.00,meteohub,2013-01-12 08:13:00,
2013-01-12 02:18:00,25.9,22.5,29.62,NW,308,9.0,26.0,87,0.00,,,0.00,meteohub,2013-01-12 08:18:00,
2013-01-12 02:23:00,25.5,22.3,29.62,NW,308,2.0,29.0,87,0.00,,,0.00,meteohub,2013-01-12 08:23:00,
2013-01-12 02:28:00,25.3,21.7,29.63,NW,307,8.0,29.0,86,0.00,,,0.00,meteohub,2013-01-12 08:28:00,
2013-01-12 02:33:00,25.2,21.9,29.63,NW,308,15.0,25.0,87,0.00,,,0.00,meteohub,2013-01-12 08:33:00,
2013-01-12 02:38:00,25.2,21.9,29.63,NW,308,13.0,21.0,87,0.00,,,0.00,meteohub,2013-01-12 08:38:00,
2013-01-12 02:43:00,24.8,21.2,29.63,NW,308,18.0,24.0,86,0.00,,,0.00,meteohub,2013-01-12 08:43:00,
2013-01-12 02:48:00,24.6,21.0,29.63,NW,308,15.0,24.0,86,0.00,,,0.00,meteohub,2013-01-12 08:48:00,
2013-01-12 02:54:00,24.6,21.0,29.64,NW,308,2.0,30.0,86,0.00,,,0.00,meteohub,2013-01-12 08:54:00,
2013-01-12 02:59:00,24.4,20.8,29.65,NW,307,6.0,30.0,86,0.00,,,0.00,meteohub,2013-01-12 08:59:00,
2013-01-12 03:04:00,24.3,20.7,29.65,NW,307,9.0,30.0,86,0.00,,,0.00,meteohub,2013-01-12 09:04:00,
2013-01-12 03:09:00,24.1,20.3,29.66,NW,308,12.0,24.0,85,0.00,,,0.00,meteohub,2013-01-12 09:09:00,
2013-01-12 03:14:00,23.7,19.6,29.66,NW,307,9.0,24.0,84,0.00,,,0.00,meteohub,2013-01-12 09:14:00,
2013-01-12 03:19:00,23.5,19.4,29.67,NW,308,21.0,25.0,84,0.00,,,0.00,meteohub,2013-01-12 09:19:00,
2013-01-12 03:24:00,23.5,19.4,29.67,NW,307,7.0,25.0,84,0.00,,,0.00,meteohub,2013-01-12 09:24:00,
2013-01-12 03:29:00,23.4,19.0,29.68,NW,308,14.0,25.0,83,0.00,,,0.00,meteohub,2013-01-12 09:29:00,
2013-01-12 03:34:00,23.4,18.7,29.68,NW,307,27.0,27.0,82,0.00,,,0.00,meteohub,2013-01-12 09:34:00,
2013-01-12 03:39:00,23.2,18.5,29.68,NW,307,15.0,27.0,82,0.00,,,0.00,meteohub,2013-01-12 09:39:00,
2013-01-12 03:44:00,23.0,18.0,29.69,NW,308,18.0,27.0,81,0.00,,,0.00,meteohub,2013-01-12 09:44:00,
2013-01-12 03:49:00,22.6,17.4,29.70,NW,308,10.0,27.0,80,0.00,,,0.00,meteohub,2013-01-12 09:49:00,
2013-01-12 03:54:00,22.5,16.9,29.70,NW,308,13.0,26.0,79,0.00,,,0.00,meteohub,2013-01-12 09:54:00,
2013-01-12 03:59:00,22.1,16.5,29.70,NW,307,7.0,26.0,79,0.00,,,0.00,meteohub,2013-01-12 09:59:00,
2013-01-12 04:04:00,21.6,15.4,29.71,NW,308,17.0,23.0,77,0.00,,,0.00,meteohub,2013-01-12 10:04:00,
2013-01-12 04:09:00,21.2,15.1,29.71,NW,307,5.0,29.0,77,0.00,,,0.00,meteohub,2013-01-12 10:09:00,
2013-01-12 04:14:00,21.0,14.9,29.72,NW,307,16.0,29.0,77,0.00,,,0.00,meteohub,2013-01-12 10:14:00,
2013-01-12 04:19:00,20.8,15.1,29.72,NW,308,12.0,29.0,78,0.00,,,0.00,meteohub,2013-01-12 10:19:00,
2013-01-12 04:24:00,20.7,14.9,29.73,NW,307,5.0,26.0,78,0.00,,,0.00,meteohub,2013-01-12 10:24:00,
2013-01-12 04:29:00,20.5,14.4,29.73,NW,308,14.0,26.0,77,0.00,,,0.00,meteohub,2013-01-12 10:29:00,
2013-01-12 04:34:00,20.3,14.2,29.74,NW,308,14.0,26.0,77,0.00,,,0.00,meteohub,2013-01-12 10:34:00,
2013-01-12 04:39:00,19.8,13.1,29.74,NW,308,7.0,26.0,75,0.00,,,0.00,meteohub,2013-01-12 10:39:00,
2013-01-12 04:44:00,19.8,13.1,29.74,NW,308,18.0,27.0,75,0.00,,,0.00,meteohub,2013-01-12 10:44:00,
2013-01-12 04:49:00,19.6,12.9,29.75,NW,307,22.0,27.0,75,0.00,,,0.00,meteohub,2013-01-12 10:49:00,
2013-01-12 04:54:00,19.4,12.7,29.75,NW,308,16.0,27.0,75,0.00,,,0.00,meteohub,2013-01-12 10:54:00,
2013-01-12 04:59:00,19.2,12.6,29.75,NW,307,13.0,27.0,75,0.00,,,0.00,meteohub,2013-01-12 10:59:00,
2013-01-12 05:04:00,19.2,12.6,29.76,NW,307,19.0,27.0,75,0.00,,,0.00,meteohub,2013-01-12 11:04:00,
2013-01-12 05:09:00,19.0,12.4,29.76,NW,308,11.0,24.0,75,0.00,,,0.00,meteohub,2013-01-12 11:09:00,
2013-01-12 05:14:00,19.0,12.4,29.76,NW,308,22.0,26.0,75,0.00,,,0.00,meteohub,2013-01-12 11:14:00,
2013-01-12 05:19:00,19.0,12.4,29.77,NW,308,13.0,33.0,75,0.00,,,0.00,meteohub,2013-01-12 11:19:00,
2013-01-12 05:24:00,19.0,12.7,29.77,NW,307,17.0,33.0,76,0.00,,,0.00,meteohub,2013-01-12 11:24:00,
2013-01-12 05:29:00,18.9,12.9,29.78,NW,308,12.0,33.0,77,0.00,,,0.00,meteohub,2013-01-12 11:29:00,
2013-01-12 05:34:00,18.5,12.7,29.78,NW,307,20.0,24.0,78,0.00,,,0.00,meteohub,2013-01-12 11:34:00,
2013-01-12 05:39:00,18.1,12.4,29.79,NW,308,4.0,32.0,78,0.00,,,0.00,meteohub,2013-01-12 11:39:00,
2013-01-12 05:44:00,18.0,12.2,29.80,NW,307,4.0,32.0,78,0.00,,,0.00,meteohub,2013-01-12 11:44:00,
2013-01-12 05:49:00,18.0,12.2,29.80,NW,308,18.0,26.0,78,0.00,,,0.00,meteohub,2013-01-12 11:49:00,
2013-01-12 05:54:00,18.0,12.2,29.80,NW,307,11.0,26.0,78,0.00,,,0.00,meteohub,2013-01-12 11:54:00,
2013-01-12 05:59:00,18.0,12.2,29.81,NW,308,12.0,23.0,78,0.00,,,0.00,meteohub,2013-01-12 11:59:00,
2013-01-12 06:04:00,17.8,11.8,29.81,NW,308,4.0,23.0,77,0.00,,,0.00,meteohub,2013-01-12 12:04:00,
2013-01-12 06:10:00,17.6,11.7,29.82,NW,308,15.0,20.0,77,0.00,,,0.00,meteohub,2013-01-12 12:10:00,
2013-01-12 06:15:00,17.4,11.5,29.82,NW,308,16.0,25.0,77,0.00,,,0.00,meteohub,2013-01-12 12:15:00,
2013-01-12 06:20:00,17.2,11.3,29.83,NW,307,6.0,27.0,77,0.00,,,0.00,meteohub,2013-01-12 12:20:00,
2013-01-12 06:25:00,17.2,11.3,29.83,NW,308,7.0,27.0,77,0.00,,,0.00,meteohub,2013-01-12 12:25:00,
2013-01-12 06:30:00,17.2,11.3,29.84,NW,308,7.0,27.0,77,0.00,,,0.00,meteohub,2013-01-12 12:30:00,
2013-01-12 06:35:00,17.1,10.8,29.84,NW,307,10.0,27.0,76,0.00,,,0.00,meteohub,2013-01-12 12:35:00,
2013-01-12 06:40:00,17.1,10.8,29.85,NW,308,12.0,27.0,76,0.00,,,0.00,meteohub,2013-01-12 12:40:00,
2013-01-12 06:45:00,17.1,10.8,29.85,NW,308,20.0,27.0,76,0.00,,,0.00,meteohub,2013-01-12 12:45:00,
2013-01-12 06:50:00,17.1,10.6,29.86,NW,308,5.0,26.0,75,0.00,,,0.00,meteohub,2013-01-12 12:50:00,
2013-01-12 06:55:00,16.9,9.7,29.86,NW,307,13.0,29.0,73,0.00,,,0.00,meteohub,2013-01-12 12:55:00,
2013-01-12 07:00:00,16.5,9.3,29.87,NW,308,11.0,29.0,73,0.00,,,0.00,meteohub,2013-01-12 13:00:00,
2013-01-12 07:05:00,16.5,9.7,29.87,NW,308,4.0,29.0,74,0.00,,,0.00,meteohub,2013-01-12 13:05:00,
2013-01-12 07:10:00,16.3,9.9,29.87,NW,307,6.0,25.0,75,0.00,,,0.00,meteohub,2013-01-12 13:10:00,
2013-01-12 07:15:00,16.2,9.3,29.88,NW,308,11.0,25.0,74,0.00,,,0.00,meteohub,2013-01-12 13:15:00,
2013-01-12 07:20:00,16.0,9.1,29.89,NW,308,5.0,26.0,74,0.00,,,0.00,meteohub,2013-01-12 13:20:00,
2013-01-12 07:25:00,16.0,9.1,29.89,NW,308,8.0,26.0,74,0.00,,,0.00,meteohub,2013-01-12 13:25:00,
2013-01-12 07:30:00,15.8,9.0,29.89,NW,307,11.0,26.0,74,0.00,,,0.00,meteohub,2013-01-12 13:30:00,
2013-01-12 07:35:00,15.6,9.5,29.90,NW,308,17.0,18.0,76,0.00,,,0.00,meteohub,2013-01-12 13:35:00,
2013-01-12 07:40:00,15.4,9.5,29.90,NW,308,3.0,23.0,77,0.00,,,0.00,meteohub,2013-01-12 13:40:00,
2013-01-12 07:45:00,15.1,9.1,29.91,NW,308,15.0,24.0,77,0.00,,,0.00,meteohub,2013-01-12 13:45:00,
2013-01-12 07:50:00,14.7,9.1,29.91,NW,308,16.0,24.0,78,0.00,,,0.00,meteohub,2013-01-12 13:50:00,
2013-01-12 07:55:00,14.5,9.0,29.91,NW,308,13.0,19.0,78,0.00,,,0.00,meteohub,2013-01-12 13:55:00,
2013-01-12 08:00:00,14.5,8.6,29.92,NW,308,5.0,21.0,77,0.00,,,0.00,meteohub,2013-01-12 14:00:00,
2013-01-12 08:05:00,14.4,8.8,29.92,NW,308,11.0,23.0,78,0.00,,,0.00,meteohub,2013-01-12 14:05:00,
2013-01-12 08:10:00,14.4,8.8,29.93,NW,308,10.0,23.0,78,0.00,,,0.00,meteohub,2013-01-12 14:10:00,
2013-01-12 08:15:00,14.4,9.0,29.93,NW,308,9.0,22.0,79,0.00,,,0.00,meteohub,2013-01-12 14:15:00,
2013-01-12 08:20:00,14.2,9.1,29.94,NW,308,13.0,22.0,80,0.00,,,0.00,meteohub,2013-01-12 14:20:00,
2013-01-12 08:25:00,14.2,9.1,29.94,NW,308,16.0,21.0,80,0.00,,,0.00,meteohub,2013-01-12 14:25:00,
2013-01-12 08:30:00,14.2,9.0,29.94,NW,308,13.0,21.0,79,0.00,,,0.00,meteohub,2013-01-12 14:30:00,
2013-01-12 08:35:00,14.0,8.8,29.94,NW,308,9.0,21.0,79,0.00,,,0.00,meteohub,2013-01-12 14:35:00,
2013-01-12 08:40:00,14.0,8.4,29.95,NW,308,11.0,22.0,78,0.00,,,0.00,meteohub,2013-01-12 14:40:00,
2013-01-12 08:45:00,13.8,7.9,29.95,NW,308,5.0,22.0,77,0.00,,,0.00,meteohub,2013-01-12 14:45:00,
2013-01-12 08:50:00,13.8,7.9,29.96,NW,307,7.0,22.0,77,0.00,,,0.00,meteohub,2013-01-12 14:50:00,
2013-01-12 08:55:00,13.6,7.5,29.96,NW,307,13.0,22.0,76,0.00,,,0.00,meteohub,2013-01-12 14:55:00,
2013-01-12 09:00:00,13.5,7.0,29.96,NW,308,17.0,22.0,75,0.00,,,0.00,meteohub,2013-01-12 15:00:00,
2013-01-12 09:05:00,13.5,7.3,29.97,NW,308,12.0,22.0,76,0.00,,,0.00,meteohub,2013-01-12 15:05:00,
2013-01-12 09:10:00,13.5,7.5,29.97,NW,308,4.0,22.0,77,0.00,,,0.00,meteohub,2013-01-12 15:10:00,
2013-01-12 09:15:00,13.5,7.5,29.98,NW,307,7.0,22.0,77,0.00,,,0.00,meteohub,2013-01-12 15:15:00,
2013-01-12 09:20:00,13.5,7.0,29.98,NW,307,7.0,21.0,75,0.00,,,0.00,meteohub,2013-01-12 15:20:00,
2013-01-12 09:25:00,13.5,7.3,29.99,NW,308,11.0,21.0,76,0.00,,,0.00,meteohub,2013-01-12 15:25:00,
2013-01-12 09:30:00,13.5,7.0,29.99,NW,308,16.0,21.0,75,0.00,,,0.00,meteohub,2013-01-12 15:30:00,
2013-01-12 09:35:00,13.3,6.8,29.99,NW,308,6.0,21.0,75,0.00,,,0.00,meteohub,2013-01-12 15:35:00,
2013-01-12 09:40:00,13.3,6.6,30.00,NW,307,10.0,20.0,74,0.00,,,0.00,meteohub,2013-01-12 15:40:00,
2013-01-12 09:45:00,13.1,6.4,30.00,NW,308,11.0,20.0,74,0.00,,,0.00,meteohub,2013-01-12 15:45:00,
2013-01-12 09:50:00,13.1,6.4,30.01,NW,308,15.0,23.0,74,0.00,,,0.00,meteohub,2013-01-12 15:50:00,
2013-01-12 09:55:00,13.3,6.3,30.01,NW,307,5.0,23.0,73,0.00,,,0.00,meteohub,2013-01-12 15:55:00,
2013-01-12 10:00:00,13.3,5.9,30.01,NW,308,7.0,23.0,72,0.00,,,0.00,meteohub,2013-01-12 16:00:00,
2013-01-12 10:05:00,13.6,6.6,30.02,NW,307,3.0,22.0,73,0.00,,,0.00,meteohub,2013-01-12 16:05:00,
2013-01-12 10:10:00,13.8,6.8,30.02,NW,308,6.0,22.0,73,0.00,,,0.00,meteohub,2013-01-12 16:10:00,
2013-01-12 10:15:00,13.1,6.4,30.02,NW,308,11.0,19.0,74,0.00,,,0.00,meteohub,2013-01-12 16:15:00,
2013-01-12 10:20:00,12.7,6.3,30.02,NW,308,4.0,20.0,75,0.00,,,0.00,meteohub,2013-01-12 16:20:00,
2013-01-12 10:25:00,12.7,6.6,30.02,NW,307,13.0,20.0,76,0.00,,,0.00,meteohub,2013-01-12 16:25:00,
2013-01-12 10:30:00,12.9,6.8,30.02,NW,308,10.0,20.0,76,0.00,,,0.00,meteohub,2013-01-12 16:30:00,
2013-01-12 10:35:00,13.6,6.6,30.02,NW,307,7.0,19.0,73,0.00,,,0.00,meteohub,2013-01-12 16:35:00,
2013-01-12 10:40:00,13.5,6.1,30.03,NW,307,16.0,19.0,72,0.00,,,0.00,meteohub,2013-01-12 16:40:00,
2013-01-12 10:45:00,14.2,7.2,30.03,NW,308,14.0,19.0,73,0.00,,,0.00,meteohub,2013-01-12 16:45:00,
2013-01-12 10:50:00,14.9,7.9,30.03,NW,308,11.0,19.0,73,0.00,,,0.00,meteohub,2013-01-12 16:50:00,
2013-01-12 10:55:00,14.9,7.0,30.04,NW,307,7.0,20.0,70,0.00,,,0.00,meteohub,2013-01-12 16:55:00,
2013-01-12 11:00:00,14.5,6.3,30.04,NW,307,4.0,22.0,69,0.00,,,0.00,meteohub,2013-01-12 17:00:00,
2013-01-12 11:05:00,14.0,5.7,30.05,NW,308,10.0,24.0,69,0.00,,,0.00,meteohub,2013-01-12 17:05:00,
2013-01-12 11:10:00,13.3,5.0,30.05,NW,308,16.0,24.0,69,0.00,,,0.00,meteohub,2013-01-12 17:10:00,
2013-01-12 11:15:00,13.5,5.9,30.05,NW,308,9.0,21.0,71,0.00,,,0.00,meteohub,2013-01-12 17:15:00,
2013-01-12 11:20:00,14.2,6.4,30.05,NW,308,16.0,21.0,71,0.00,,,0.00,meteohub,2013-01-12 17:20:00,
2013-01-12 11:25:00,13.6,5.7,30.05,NW,307,13.0,24.0,70,0.00,,,0.00,meteohub,2013-01-12 17:25:00,
2013-01-12 11:30:00,13.5,5.5,30.04,NW,308,9.0,24.0,70,0.00,,,0.00,meteohub,2013-01-12 17:30:00,
2013-01-12 11:35:00,13.5,5.2,30.04,NW,307,11.0,24.0,69,0.00,,,0.00,meteohub,2013-01-12 17:35:00,
2013-01-12 11:40:00,13.5,4.6,30.04,NW,307,6.0,21.0,67,0.00,,,0.00,meteohub,2013-01-12 17:40:00,
2013-01-12 11:45:00,13.6,5.4,30.05,NW,308,20.0,20.0,69,0.00,,,0.00,meteohub,2013-01-12 17:45:00,
2013-01-12 11:50:00,14.4,6.4,30.05,NW,308,18.0,20.0,70,0.00,,,0.00,meteohub,2013-01-12 17:50:00,
2013-01-12 11:55:00,14.4,5.7,30.05,NW,308,20.0,24.0,68,0.00,,,0.00,meteohub,2013-01-12 17:55:00,
2013-01-12 12:00:00,14.2,5.5,30.05,NW,308,17.0,24.0,68,0.00,,,0.00,meteohub,2013-01-12 18:00:00,
2013-01-12 12:05:00,13.5,4.8,30.06,NW,307,16.0,24.0,68,0.00,,,0.00,meteohub,2013-01-12 18:05:00,
2013-01-12 12:10:00,12.9,5.0,30.06,NW,308,10.0,23.0,70,0.00,,,0.00,meteohub,2013-01-12 18:10:00,
2013-01-12 12:15:00,12.7,4.8,30.06,NW,308,15.0,23.0,70,0.00,,,0.00,meteohub,2013-01-12 18:15:00,
2013-01-12 12:20:00,12.7,4.5,30.06,NW,308,11.0,22.0,69,0.00,,,0.00,meteohub,2013-01-12 18:20:00,
2013-01-12 12:25:00,12.7,4.8,30.06,NW,308,7.0,21.0,70,0.00,,,0.00,meteohub,2013-01-12 18:25:00,
2013-01-12 12:30:00,12.9,5.0,30.06,NW,307,9.0,21.0,70,0.00,,,0.00,meteohub,2013-01-12 18:30:00,
2013-01-12 12:35:00,13.5,5.5,30.06,NW,308,13.0,21.0,70,0.00,,,0.00,meteohub,2013-01-12 18:35:00,
2013-01-12 12:40:00,13.1,4.5,30.06,NW,308,8.0,21.0,68,0.00,,,0.00,meteohub,2013-01-12 18:40:00,
2013-01-12 12:45:00,13.5,5.5,30.06,NW,307,5.0,20.0,70,0.00,,,0.00,meteohub,2013-01-12 18:45:00,
2013-01-12 12:50:00,14.2,6.3,30.06,NW,308,16.0,21.0,70,0.00,,,0.00,meteohub,2013-01-12 18:50:00,
2013-01-12 12:55:00,14.5,5.9,30.06,NW,308,13.0,21.0,68,0.00,,,0.00,meteohub,2013-01-12 18:55:00,
2013-01-12 13:00:00,14.7,5.7,30.07,NW,308,7.0,25.0,67,0.00,,,0.00,meteohub,2013-01-12 19:00:00,
2013-01-12 13:05:00,14.4,5.0,30.07,NW,308,7.0,25.0,66,0.00,,,0.00,meteohub,2013-01-12 19:05:00,
2013-01-12 13:10:00,13.8,4.3,30.07,NW,308,12.0,25.0,65,0.00,,,0.00,meteohub,2013-01-12 19:10:00,
2013-01-12 13:15:00,13.5,4.6,30.08,NW,307,4.0,25.0,67,0.00,,,0.00,meteohub,2013-01-12 19:15:00,
2013-01-12 13:20:00,12.9,4.1,30.08,NW,307,13.0,25.0,67,0.00,,,0.00,meteohub,2013-01-12 19:20:00,
2013-01-12 13:25:00,12.6,4.3,30.09,NW,308,7.0,25.0,69,0.00,,,0.00,meteohub,2013-01-12 19:25:00,
2013-01-12 13:30:00,12.6,4.1,30.09,NW,308,12.0,19.0,68,0.00,,,0.00,meteohub,2013-01-12 19:30:00,
2013-01-12 13:35:00,12.2,3.7,30.09,NW,308,7.0,24.0,68,0.00,,,0.00,meteohub,2013-01-12 19:35:00,
2013-01-12 13:40:00,11.8,3.9,30.10,NW,308,9.0,24.0,70,0.00,,,0.00,meteohub,2013-01-12 19:40:00,
2013-01-12 13:45:00,11.8,4.3,30.10,NW,308,4.0,24.0,71,0.00,,,0.00,meteohub,2013-01-12 19:45:00,
2013-01-12 13:50:00,12.0,4.1,30.10,NW,308,6.0,20.0,70,0.00,,,0.00,meteohub,2013-01-12 19:50:00,
2013-01-12 13:55:00,12.0,4.5,30.10,NW,308,9.0,22.0,71,0.00,,,0.00,meteohub,2013-01-12 19:55:00,
2013-01-12 14:00:00,11.7,4.1,30.10,NW,307,5.0,22.0,71,0.00,,,0.00,meteohub,2013-01-12 20:00:00,
2013-01-12 14:05:00,11.5,3.9,30.11,NW,308,2.0,22.0,71,0.00,,,0.00,meteohub,2013-01-12 20:05:00,
2013-01-12 14:10:00,11.1,3.9,30.11,NW,308,10.0,18.0,72,0.00,,,0.00,meteohub,2013-01-12 20:10:00,
2013-01-12 14:15:00,10.9,3.7,30.10,NW,308,6.0,15.0,72,0.00,,,0.00,meteohub,2013-01-12 20:15:00,
2013-01-12 14:20:00,11.7,4.6,30.10,NW,308,10.0,16.0,73,0.00,,,0.00,meteohub,2013-01-12 20:20:00,
2013-01-12 14:25:00,11.8,4.6,30.11,NW,308,12.0,17.0,72,0.00,,,0.00,meteohub,2013-01-12 20:25:00,
2013-01-12 14:30:00,11.8,4.3,30.11,NW,307,5.0,18.0,71,0.00,,,0.00,meteohub,2013-01-12 20:30:00,
2013-01-12 14:35:00,11.8,3.9,30.12,NW,308,6.0,18.0,70,0.00,,,0.00,meteohub,2013-01-12 20:35:00,
2013-01-12 14:40:00,11.8,3.9,30.12,NW,307,3.0,23.0,70,0.00,,,0.00,meteohub,2013-01-12 20:40:00,
2013-01-12 14:45:00,11.5,3.6,30.12,NW,307,7.0,23.0,70,0.00,,,0.00,meteohub,2013-01-12 20:45:00,
2013-01-12 14:50:00,11.1,3.2,30.12,NW,308,6.0,23.0,70,0.00,,,0.00,meteohub,2013-01-12 20:50:00,
2013-01-12 14:55:00,11.1,3.2,30.12,NW,308,0.0,17.0,70,0.00,,,0.00,meteohub,2013-01-12 20:55:00,
2013-01-12 15:00:00,11.1,3.2,30.12,NW,308,11.0,17.0,70,0.00,,,0.00,meteohub,2013-01-12 21:00:00,
2013-01-12 15:05:00,11.1,3.2,30.12,NW,308,11.0,17.0,70,0.00,,,0.00,meteohub,2013-01-12 21:05:00,
2013-01-12 15:10:00,11.1,3.2,30.12,NW,307,5.0,23.0,70,0.00,,,0.00,meteohub,2013-01-12 21:10:00,
2013-01-12 15:15:00,11.1,3.2,30.12,NW,307,6.0,23.0,70,0.00,,,0.00,meteohub,2013-01-12 21:15:00,
2013-01-12 15:20:00,10.9,2.8,30.12,NW,307,10.0,23.0,69,0.00,,,0.00,meteohub,2013-01-12 21:20:00,
2013-01-12 15:25:00,10.9,2.5,30.12,NW,308,2.0,22.0,68,0.00,,,0.00,meteohub,2013-01-12 21:25:00,
2013-01-12 15:30:00,10.8,2.7,30.13,NW,308,13.0,22.0,69,0.00,,,0.00,meteohub,2013-01-12 21:30:00,
2013-01-12 15:35:00,10.4,3.2,30.13,NW,308,13.0,18.0,72,0.00,,,0.00,meteohub,2013-01-12 21:35:00,
2013-01-12 15:40:00,10.6,3.0,30.12,NW,308,6.0,17.0,71,0.00,,,0.00,meteohub,2013-01-12 21:40:00,
2013-01-12 15:45:00,10.8,3.2,30.12,NW,308,12.0,17.0,71,0.00,,,0.00,meteohub,2013-01-12 21:45:00,
2013-01-12 15:50:00,10.8,3.2,30.12,NW,308,5.0,18.0,71,0.00,,,0.00,meteohub,2013-01-12 21:50:00,
2013-01-12 15:55:00,10.8,3.6,30.11,NW,307,9.0,20.0,72,0.00,,,0.00,meteohub,2013-01-12 21:55:00,
2013-01-12 16:00:00,10.2,2.7,30.12,NW,308,11.0,20.0,71,0.00,,,0.00,meteohub,2013-01-12 22:00:00,
2013-01-12 16:05:00,10.0,2.3,30.13,NW,307,5.0,16.0,70,0.00,,,0.00,meteohub,2013-01-12 22:05:00,
2013-01-12 16:10:00,10.2,2.5,30.14,NW,308,11.0,17.0,70,0.00,,,0.00,meteohub,2013-01-12 22:10:00,
2013-01-12 16:15:00,10.2,2.1,30.13,NW,308,13.0,20.0,69,0.00,,,0.00,meteohub,2013-01-12 22:15:00,
2013-01-12 16:20:00,9.9,1.8,30.13,NW,307,6.0,20.0,69,0.00,,,0.00,meteohub,2013-01-12 22:20:00,
2013-01-12 16:25:00,9.7,1.9,30.13,NW,308,7.0,20.0,70,0.00,,,0.00,meteohub,2013-01-12 22:25:00,
2013-01-12 16:30:00,9.7,1.9,30.14,NW,308,10.0,17.0,70,0.00,,,0.00,meteohub,2013-01-12 22:30:00,
2013-01-12 16:36:00,9.7,1.9,30.14,NW,308,4.0,17.0,70,0.00,,,0.00,meteohub,2013-01-12 22:36:00,
2013-01-12 16:41:00,9.3,1.6,30.14,NW,308,7.0,18.0,70,0.00,,,0.00,meteohub,2013-01-12 22:41:00,
2013-01-12 16:46:00,9.3,2.1,30.15,NW,308,5.0,18.0,72,0.00,,,0.00,meteohub,2013-01-12 22:46:00,
2013-01-12 16:51:00,9.1,2.3,30.15,NW,307,11.0,18.0,73,0.00,,,0.00,meteohub,2013-01-12 22:51:00,
2013-01-12 16:56:00,9.0,2.3,30.16,NW,308,12.0,17.0,74,0.00,,,0.00,meteohub,2013-01-12 22:56:00,
2013-01-12 17:01:00,9.0,2.3,30.17,NW,308,11.0,15.0,74,0.00,,,0.00,meteohub,2013-01-12 23:01:00,
2013-01-12 17:06:00,8.8,2.1,30.17,NW,308,7.0,15.0,74,0.00,,,0.00,meteohub,2013-01-12 23:06:00,
2013-01-12 17:11:00,8.8,1.9,30.18,NW,307,4.0,15.0,73,0.00,,,0.00,meteohub,2013-01-12 23:11:00,
2013-01-12 17:16:00,8.6,1.8,30.18,NW,308,2.0,14.0,73,0.00,,,0.00,meteohub,2013-01-12 23:16:00,
2013-01-12 17:21:00,8.4,1.6,30.18,NW,308,3.0,15.0,73,0.00,,,0.00,meteohub,2013-01-12 23:21:00,
2013-01-12 17:26:00,8.4,1.2,30.18,NW,308,11.0,16.0,72,0.00,,,0.00,meteohub,2013-01-12 23:26:00,
2013-01-12 17:31:00,8.4,1.2,30.18,NW,308,4.0,16.0,72,0.00,,,0.00,meteohub,2013-01-12 23:31:00,
2013-01-12 17:36:00,8.2,1.0,30.17,NW,307,4.0,16.0,72,0.00,,,0.00,meteohub,2013-01-12 23:36:00,
2013-01-12 17:41:00,8.2,1.0,30.18,NW,308,1.0,13.0,72,0.00,,,0.00,meteohub,2013-01-12 23:41:00,
2013-01-12 17:46:00,8.2,1.0,30.18,NW,307,6.0,12.0,72,0.00,,,0.00,meteohub,2013-01-12 23:46:00,
2013-01-12 17:51:00,8.1,0.9,30.17,NW,308,6.0,12.0,72,0.00,,,0.00,meteohub,2013-01-12 23:51:00,
2013-01-12 17:56:00,8.1,0.9,30.17,NW,308,0.0,14.0,72,0.00,,,0.00,meteohub,2013-01-12 23:56:00,
2013-01-12 18:01:00,8.1,0.9,30.17,NW,308,6.0,14.0,72,0.00,,,0.00,meteohub,2013-01-13 00:01:00,
2013-01-12 18:06:00,8.1,0.9,30.17,NW,308,6.0,14.0,72,0.00,,,0.00,meteohub,2013-01-13 00:06:00,
2013-01-12 18:11:00,8.1,0.9,30.17,NW,307,3.0,15.0,72,0.00,,,0.00,meteohub,2013-01-13 00:11:00,
2013-01-12 18:16:00,8.1,0.9,30.17,NW,308,7.0,15.0,72,0.00,,,0.00,meteohub,2013-01-13 00:16:00,
2013-01-12 18:21:00,7.9,0.7,30.16,NW,307,4.0,15.0,72,0.00,,,0.00,meteohub,2013-01-13 00:21:00,
2013-01-12 18:26:00,7.9,0.7,30.17,NW,308,6.0,14.0,72,0.00,,,0.00,meteohub,2013-01-13 00:26:00,
2013-01-12 18:31:00,7.9,0.5,30.17,NW,308,2.0,14.0,71,0.00,,,0.00,meteohub,2013-01-13 00:31:00,
2013-01-12 18:36:00,7.9,0.5,30.17,NW,308,3.0,12.0,71,0.00,,,0.00,meteohub,2013-01-13 00:36:00,
2013-01-12 18:41:00,7.7,0.3,30.18,NW,308,12.0,12.0,71,0.00,,,0.00,meteohub,2013-01-13 00:41:00,
2013-01-12 18:46:00,7.7,0.3,30.17,NW,307,5.0,14.0,71,0.00,,,0.00,meteohub,2013-01-13 00:46:00,
2013-01-12 18:51:00,7.7,0.3,30.17,NW,308,2.0,17.0,71,0.00,,,0.00,meteohub,2013-01-13 00:51:00,
2013-01-12 18:56:00,7.5,0.1,30.18,NW,307,7.0,17.0,71,0.00,,,0.00,meteohub,2013-01-13 00:56:00,
2013-01-12 19:01:00,7.5,0.1,30.19,NW,307,3.0,15.0,71,0.00,,,0.00,meteohub,2013-01-13 01:01:00,
2013-01-12 19:06:00,7.5,0.1,30.19,NW,308,3.0,13.0,71,0.00,,,0.00,meteohub,2013-01-13 01:06:00,
2013-01-12 19:11:00,7.3,0.1,30.19,NW,308,2.0,12.0,72,0.00,,,0.00,meteohub,2013-01-13 01:11:00,
2013-01-12 19:16:00,7.3,0.1,30.18,NW,307,5.0,12.0,72,0.00,,,0.00,meteohub,2013-01-13 01:16:00,
2013-01-12 19:21:00,7.3,0.1,30.18,NW,308,7.0,13.0,72,0.00,,,0.00,meteohub,2013-01-13 01:21:00,
2013-01-12 19:26:00,7.3,0.1,30.18,NW,308,12.0,15.0,72,0.00,,,0.00,meteohub,2013-01-13 01:26:00,
2013-01-12 19:31:00,7.3,0.1,30.19,NW,308,12.0,15.0,72,0.00,,,0.00,meteohub,2013-01-13 01:31:00,
2013-01-12 19:36:00,7.3,0.1,30.19,NW,308,4.0,17.0,72,0.00,,,0.00,meteohub,2013-01-13 01:36:00,
2013-01-12 19:42:00,7.3,0.1,30.19,NW,308,7.0,17.0,72,0.00,,,0.00,meteohub,2013-01-13 01:42:00,
2013-01-12 19:47:00,7.3,0.1,30.20,NW,307,3.0,17.0,72,0.00,,,0.00,meteohub,2013-01-13 01:47:00,
2013-01-12 19:52:00,7.3,0.1,30.22,NW,308,4.0,14.0,72,0.00,,,0.00,meteohub,2013-01-13 01:52:00,
2013-01-12 19:57:00,7.2,0.0,30.21,NW,308,3.0,14.0,72,0.00,,,0.00,meteohub,2013-01-13 01:57:00,
2013-01-12 20:02:00,7.2,0.0,30.20,NW,307,4.0,11.0,72,0.00,,,0.00,meteohub,2013-01-13 02:02:00,
2013-01-12 20:07:00,7.2,0.3,30.20,NW,308,0.0,10.0,73,0.00,,,0.00,meteohub,2013-01-13 02:07:00,
2013-01-12 20:12:00,7.2,0.3,30.20,NW,307,3.0,12.0,73,0.00,,,0.00,meteohub,2013-01-13 02:12:00,
2013-01-12 20:17:00,7.2,0.3,30.21,NW,308,4.0,12.0,73,0.00,,,0.00,meteohub,2013-01-13 02:17:00,
2013-01-12 20:22:00,7.2,0.3,30.21,NW,308,1.0,12.0,73,0.00,,,0.00,meteohub,2013-01-13 02:22:00,
2013-01-12 20:27:00,7.2,0.3,30.21,NW,307,3.0,11.0,73,0.00,,,0.00,meteohub,2013-01-13 02:27:00,
2013-01-12 20:32:00,7.2,0.7,30.20,NW,308,3.0,11.0,74,0.00,,,0.00,meteohub,2013-01-13 02:32:00,
2013-01-12 20:37:00,7.2,0.7,30.19,NW,307,6.0,11.0,74,0.00,,,0.00,meteohub,2013-01-13 02:37:00,
2013-01-12 20:42:00,7.2,0.3,30.21,NW,308,4.0,11.0,73,0.00,,,0.00,meteohub,2013-01-13 02:42:00,
2013-01-12 20:47:00,7.0,0.1,30.23,NW,308,5.0,15.0,73,0.00,,,0.00,meteohub,2013-01-13 02:47:00,
2013-01-12 20:52:00,7.0,0.1,30.23,NW,307,4.0,15.0,73,0.00,,,0.00,meteohub,2013-01-13 02:52:00,
2013-01-12 20:57:00,7.0,0.5,30.24,NW,308,0.0,15.0,74,0.00,,,0.00,meteohub,2013-01-13 02:57:00,
2013-01-12 21:02:00,7.0,0.5,30.24,NW,308,2.0,13.0,74,0.00,,,0.00,meteohub,2013-01-13 03:02:00,
2013-01-12 21:07:00,7.0,0.5,30.22,NW,308,8.0,11.0,74,0.00,,,0.00,meteohub,2013-01-13 03:07:00,
2013-01-12 21:12:00,7.0,0.5,30.22,NW,308,3.0,11.0,74,0.00,,,0.00,meteohub,2013-01-13 03:12:00,
2013-01-12 21:17:00,6.8,0.0,30.22,NW,307,4.0,9.0,73,0.00,,,0.00,meteohub,2013-01-13 03:17:00,
2013-01-12 21:22:00,6.6,-0.4,30.22,NW,307,4.0,12.0,72,0.00,,,0.00,meteohub,2013-01-13 03:22:00,
2013-01-12 21:27:00,6.6,-0.4,30.23,NW,308,10.0,12.0,72,0.00,,,0.00,meteohub,2013-01-13 03:27:00,
2013-01-12 21:32:00,6.4,-0.6,30.22,NW,307,2.0,12.0,72,0.00,,,0.00,meteohub,2013-01-13 03:32:00,
2013-01-12 21:37:00,6.4,-0.4,30.22,NW,308,3.0,11.0,73,0.00,,,0.00,meteohub,2013-01-13 03:37:00,
2013-01-12 21:42:00,6.4,-0.4,30.22,NW,308,2.0,11.0,73,0.00,,,0.00,meteohub,2013-01-13 03:42:00,
2013-01-12 21:47:00,6.4,-0.4,30.22,NW,308,4.0,12.0,73,0.00,,,0.00,meteohub,2013-01-13 03:47:00,
2013-01-12 21:52:00,6.3,-0.6,30.22,NW,308,7.0,12.0,73,0.00,,,0.00,meteohub,2013-01-13 03:52:00,
2013-01-12 21:57:00,6.1,-0.9,30.22,NW,307,6.0,11.0,72,0.00,,,0.00,meteohub,2013-01-13 03:57:00,
2013-01-12 22:02:00,5.7,-1.1,30.23,NW,308,1.0,11.0,73,0.00,,,0.00,meteohub,2013-01-13 04:02:00,
2013-01-12 22:07:00,5.7,-1.1,30.22,NW,308,6.0,11.0,73,0.00,,,0.00,meteohub,2013-01-13 04:07:00,
2013-01-12 22:12:00,5.5,-1.3,30.23,NW,308,5.0,12.0,73,0.00,,,0.00,meteohub,2013-01-13 04:12:00,
2013-01-12 22:17:00,5.4,-1.7,30.23,NW,308,5.0,12.0,72,0.00,,,0.00,meteohub,2013-01-13 04:17:00,
2013-01-12 22:22:00,5.4,-1.7,30.22,NW,308,5.0,13.0,72,0.00,,,0.00,meteohub,2013-01-13 04:22:00,
2013-01-12 22:27:00,5.2,-1.8,30.24,NW,307,4.0,13.0,72,0.00,,,0.00,meteohub,2013-01-13 04:27:00,
2013-01-12 22:32:00,5.2,-1.8,30.24,NW,307,5.0,13.0,72,0.00,,,0.00,meteohub,2013-01-13 04:32:00,
2013-01-12 22:37:00,5.0,0.5,30.22,NW,308,10.0,11.0,81,0.00,,,0.00,meteohub,2013-01-13 04:37:00,
2013-01-12 22:42:00,4.8,-2.2,30.23,NW,308,10.0,14.0,72,0.00,,,0.00,meteohub,2013-01-13 04:42:00,
2013-01-12 22:47:00,4.8,-2.2,30.23,NW,308,5.0,14.0,72,0.00,,,0.00,meteohub,2013-01-13 04:47:00,
2013-01-12 22:52:00,4.8,-2.2,30.22,NW,307,5.0,14.0,72,0.00,,,0.00,meteohub,2013-01-13 04:52:00,
2013-01-12 22:58:00,4.8,-1.8,30.22,NW,308,6.0,12.0,73,0.00,,,0.00,meteohub,2013-01-13 04:58:00,
2013-01-12 23:00:00,4.6,-2.0,30.22,NW,307,3.0,12.0,73,0.00,,,0.00,meteohub,2013-01-13 05:00:00,
2013-01-12 23:07:00,4.6,-2.0,30.22,NW,308,4.0,13.0,73,0.00,,,0.00,meteohub,2013-01-13 05:07:00,
2013-01-12 23:12:00,4.6,-2.0,30.22,NW,308,6.0,13.0,73,0.00,,,0.00,meteohub,2013-01-13 05:12:00,
2013-01-12 23:15:00,4.5,-2.2,30.22,NW,308,3.0,13.0,73,0.00,,,0.00,meteohub,2013-01-13 05:15:00,
2013-01-12 23:20:00,4.5,-2.2,30.23,NW,307,10.0,11.0,73,0.00,,,0.00,meteohub,2013-01-13 05:20:00,
2013-01-12 23:25:00,4.5,-2.2,30.22,NW,308,4.0,13.0,73,0.00,,,0.00,meteohub,2013-01-13 05:25:00,
2013-01-12 23:30:00,4.5,-2.2,30.22,NW,308,3.0,13.0,73,0.00,,,0.00,meteohub,2013-01-13 05:30:00,
2013-01-12 23:35:00,4.3,-2.4,30.23,NW,307,6.0,13.0,73,0.00,,,0.00,meteohub,2013-01-13 05:35:00,
2013-01-12 23:40:00,4.3,-2.4,30.24,NW,308,3.0,8.0,73,0.00,,,0.00,meteohub,2013-01-13 05:40:00,
2013-01-12 23:45:00,4.3,-2.4,30.24,NW,307,5.0,7.0,73,0.00,,,0.00,meteohub,2013-01-13 05:45:00,
2013-01-12 23:50:00,4.3,-2.2,30.23,NW,307,2.0,7.0,74,0.00,,,0.00,meteohub,2013-01-13 05:50:00,
2013-01-12 23:55:00,4.3,-2.2,30.23,NW,307,3.0,7.0,74,0.00,,,0.00,meteohub,2013-01-13 05:55:00,